sensor_id;sensor_type;location;lat;lon;timestamp;P1;durP1;ratioP1;P2;durP2;ratioP2
71821;SDS011;64096;52.548;13.406;2024-02-21T06:01:43;10.32;;;4.85;;
71821;SDS011;64096;52.548;13.406;2024-02-21T06:04:09;12.73;;;5.70;;
71821;SDS011;64096;52.548;13.406;2024-02-21T06:06:35;9.38;;;4.80;;
71821;SDS011;64096;52.548;13.406;2024-02-21T06:09:01;9.75;;;5.10;;
71821;SDS011;64096;52.548;13.406;2024-02-21T06:11:28;10.77;;;5.80;;
71821;SDS011;64096;52.548;13.406;2024-02-21T06:13:56;10.57;;;5.28;;
71821;SDS011;64096;52.548;13.406;2024-02-21T06:16:22;11.50;;;5.28;;
71821;SDS011;64096;52.548;13.406;2024-02-21T06:18:48;10.85;;;5.45;;
71821;SDS011;64096;52.548;13.406;2024-02-21T06:21:14;9.85;;;5.47;;
71821;SDS011;64096;52.548;13.406;2024-02-21T06:23:41;9.40;;;5.18;;
71821;SDS011;64096;52.548;13.406;2024-02-21T06:26:07;11.60;;;5.55;;
71821;SDS011;64096;52.548;13.406;2024-02-21T06:28:33;11.85;;;5.90;;
71821;SDS011;64096;52.548;13.406;2024-02-21T06:30:59;9.93;;;5.25;;
71821;SDS011;64096;52.548;13.406;2024-02-21T06:33:25;9.02;;;5.38;;
71821;SDS011;64096;52.548;13.406;2024-02-21T06:35:52;10.75;;;5.32;;
71821;SDS011;64096;52.548;13.406;2024-02-21T06:38:19;13.07;;;5.55;;
71821;SDS011;64096;52.548;13.406;2024-02-21T06:40:45;11.05;;;5.47;;
71821;SDS011;64096;52.548;13.406;2024-02-21T06:43:16;12.15;;;5.93;;
71821;SDS011;64096;52.548;13.406;2024-02-21T06:45:42;9.65;;;5.50;;
71821;SDS011;64096;52.548;13.406;2024-02-21T06:48:12;11.73;;;5.47;;
71821;SDS011;64096;52.548;13.406;2024-02-21T06:50:38;10.90;;;5.53;;
71821;SDS011;64096;52.548;13.406;2024-02-21T06:53:04;10.48;;;5.82;;
71821;SDS011;64096;52.548;13.406;2024-02-21T06:55:30;12.80;;;5.90;;
71821;SDS011;64096;52.548;13.406;2024-02-21T06:57:56;9.68;;;5.28;;
71821;SDS011;64096;52.548;13.406;2024-02-21T07:00:22;8.38;;;5.20;;
71821;SDS011;64096;52.548;13.406;2024-02-21T07:02:48;9.43;;;5.25;;
71821;SDS011;64096;52.548;13.406;2024-02-21T07:05:14;13.73;;;9.43;;
71821;SDS011;64096;52.548;13.406;2024-02-21T07:07:41;12.68;;;7.35;;
71821;SDS011;64096;52.548;13.406;2024-02-21T07:10:07;11.02;;;6.15;;
71821;SDS011;64096;52.548;13.406;2024-02-21T07:12:33;10.70;;;5.75;;
71821;SDS011;64096;52.548;13.406;2024-02-21T07:15:00;9.35;;;5.85;;
71821;SDS011;64096;52.548;13.406;2024-02-21T07:17:26;9.15;;;5.75;;
71821;SDS011;64096;52.548;13.406;2024-02-21T07:19:52;9.95;;;6.25;;
71821;SDS011;64096;52.548;13.406;2024-02-21T07:22:21;8.38;;;5.28;;
71821;SDS011;64096;52.548;13.406;2024-02-21T07:24:47;10.45;;;5.93;;
71821;SDS011;64096;52.548;13.406;2024-02-21T07:27:14;9.23;;;5.93;;
71821;SDS011;64096;52.548;13.406;2024-02-21T07:29:40;9.00;;;5.35;;
71821;SDS011;64096;52.548;13.406;2024-02-21T07:32:12;10.20;;;5.82;;
71821;SDS011;64096;52.548;13.406;2024-02-21T07:34:38;8.63;;;5.28;;
71821;SDS011;64096;52.548;13.406;2024-02-21T07:37:04;9.00;;;5.22;;
71821;SDS011;64096;52.548;13.406;2024-02-21T07:39:30;11.75;;;6.25;;
71821;SDS011;64096;52.548;13.406;2024-02-21T07:41:56;9.95;;;6.03;;
71821;SDS011;64096;52.548;13.406;2024-02-21T07:44:22;13.80;;;6.35;;
71821;SDS011;64096;52.548;13.406;2024-02-21T07:46:48;9.80;;;5.80;;
71821;SDS011;64096;52.548;13.406;2024-02-21T07:49:14;10.30;;;5.55;;
71821;SDS011;64096;52.548;13.406;2024-02-21T07:51:40;9.20;;;5.80;;
71821;SDS011;64096;52.548;13.406;2024-02-21T07:54:07;9.52;;;5.38;;
71821;SDS011;64096;52.548;13.406;2024-02-21T07:56:33;9.88;;;5.78;;
71821;SDS011;64096;52.548;13.406;2024-02-21T07:58:59;10.68;;;5.50;;
71821;SDS011;64096;52.548;13.406;2024-02-21T08:01:25;9.52;;;5.25;;
71821;SDS011;64096;52.548;13.406;2024-02-21T08:03:51;8.55;;;5.03;;
71821;SDS011;64096;52.548;13.406;2024-02-21T08:06:17;8.23;;;4.95;;
71821;SDS011;64096;52.548;13.406;2024-02-21T08:08:43;10.48;;;5.55;;
71821;SDS011;64096;52.548;13.406;2024-02-21T08:11:09;11.52;;;7.05;;
71821;SDS011;64096;52.548;13.406;2024-02-21T08:13:36;10.23;;;6.40;;
71821;SDS011;64096;52.548;13.406;2024-02-21T08:16:02;9.38;;;5.85;;
71821;SDS011;64096;52.548;13.406;2024-02-21T08:18:28;10.15;;;6.38;;
71821;SDS011;64096;52.548;13.406;2024-02-21T08:20:54;12.82;;;7.00;;
71821;SDS011;64096;52.548;13.406;2024-02-21T08:23:22;9.95;;;5.47;;
71821;SDS011;64096;52.548;13.406;2024-02-21T08:25:50;9.63;;;5.45;;
71821;SDS011;64096;52.548;13.406;2024-02-21T08:28:16;7.68;;;4.78;;
71821;SDS011;64096;52.548;13.406;2024-02-21T08:30:42;14.32;;;7.50;;
71821;SDS011;64096;52.548;13.406;2024-02-21T08:33:12;9.23;;;5.32;;
71821;SDS011;64096;52.548;13.406;2024-02-21T08:35:38;10.15;;;5.63;;
71821;SDS011;64096;52.548;13.406;2024-02-21T08:38:04;9.82;;;5.28;;
71821;SDS011;64096;52.548;13.406;2024-02-21T08:40:31;9.95;;;5.57;;
71821;SDS011;64096;52.548;13.406;2024-02-21T08:43:00;9.32;;;4.97;;
71821;SDS011;64096;52.548;13.406;2024-02-21T08:45:26;11.13;;;5.65;;
71821;SDS011;64096;52.548;13.406;2024-02-21T08:47:52;8.90;;;5.38;;
71821;SDS011;64096;52.548;13.406;2024-02-21T08:50:18;10.18;;;5.57;;
71821;SDS011;64096;52.548;13.406;2024-02-21T08:52:44;9.93;;;5.88;;
71821;SDS011;64096;52.548;13.406;2024-02-21T08:55:10;9.85;;;5.78;;
71821;SDS011;64096;52.548;13.406;2024-02-21T08:57:36;9.73;;;5.85;;
71821;SDS011;64096;52.548;13.406;2024-02-21T09:00:03;9.70;;;5.53;;
71821;SDS011;64096;52.548;13.406;2024-02-21T09:02:35;9.77;;;5.38;;
71821;SDS011;64096;52.548;13.406;2024-02-21T09:05:02;8.63;;;5.57;;
71821;SDS011;64096;52.548;13.406;2024-02-21T09:07:30;9.88;;;6.20;;
71821;SDS011;64096;52.548;13.406;2024-02-21T09:09:56;8.98;;;5.80;;
71821;SDS011;64096;52.548;13.406;2024-02-21T09:12:23;9.98;;;5.57;;
71821;SDS011;64096;52.548;13.406;2024-02-21T09:14:49;9.77;;;5.75;;
71821;SDS011;64096;52.548;13.406;2024-02-21T09:17:16;10.30;;;6.15;;
71821;SDS011;64096;52.548;13.406;2024-02-21T09:19:50;11.40;;;6.72;;
71821;SDS011;64096;52.548;13.406;2024-02-21T09:22:16;10.68;;;6.47;;
71821;SDS011;64096;52.548;13.406;2024-02-21T09:24:42;10.82;;;6.32;;
71821;SDS011;64096;52.548;13.406;2024-02-21T09:27:08;11.57;;;6.70;;
71821;SDS011;64096;52.548;13.406;2024-02-21T09:29:34;11.50;;;6.97;;
71821;SDS011;64096;52.548;13.406;2024-02-21T09:32:01;10.57;;;6.78;;
71821;SDS011;64096;52.548;13.406;2024-02-21T09:34:28;10.77;;;6.82;;
71821;SDS011;64096;52.548;13.406;2024-02-21T09:36:54;10.45;;;6.30;;
71821;SDS011;64096;52.548;13.406;2024-02-21T09:39:20;10.43;;;6.68;;
71821;SDS011;64096;52.548;13.406;2024-02-21T09:41:48;11.90;;;7.05;;
71821;SDS011;64096;52.548;13.406;2024-02-21T09:44:25;13.20;;;7.35;;
71821;SDS011;64096;52.548;13.406;2024-02-21T09:47:37;11.52;;;6.35;;
71821;SDS011;64096;52.548;13.406;2024-02-21T09:49:42;11.45;;;6.47;;
71821;SDS011;64096;52.548;13.406;2024-02-21T09:52:10;12.60;;;6.63;;
71821;SDS011;64096;52.548;13.406;2024-02-21T09:54:38;9.73;;;6.57;;
71821;SDS011;64096;52.548;13.406;2024-02-21T09:57:06;10.35;;;6.70;;
71821;SDS011;64096;52.548;13.406;2024-02-21T09:59:33;11.40;;;6.88;;
71821;SDS011;64096;52.548;13.406;2024-02-21T10:01:59;10.32;;;7.18;;
71821;SDS011;64096;52.548;13.406;2024-02-21T10:04:26;10.65;;;7.22;;
71821;SDS011;64096;52.548;13.406;2024-02-21T10:06:56;9.65;;;7.25;;
71821;SDS011;64096;52.548;13.406;2024-02-21T10:09:22;9.35;;;6.47;;
71821;SDS011;64096;52.548;13.406;2024-02-21T10:11:49;11.70;;;6.88;;
71821;SDS011;64096;52.548;13.406;2024-02-21T10:14:16;10.77;;;6.70;;
71821;SDS011;64096;52.548;13.406;2024-02-21T10:16:43;9.43;;;6.45;;
71821;SDS011;64096;52.548;13.406;2024-02-21T10:19:16;9.10;;;6.22;;
71821;SDS011;64096;52.548;13.406;2024-02-21T10:21:42;9.88;;;6.45;;
71821;SDS011;64096;52.548;13.406;2024-02-21T10:24:10;9.35;;;6.70;;
71821;SDS011;64096;52.548;13.406;2024-02-21T10:26:37;10.35;;;6.38;;
71821;SDS011;64096;52.548;13.406;2024-02-21T10:29:03;11.48;;;6.68;;
71821;SDS011;64096;52.548;13.406;2024-02-21T10:31:29;10.00;;;6.63;;
71821;SDS011;64096;52.548;13.406;2024-02-21T10:34:02;10.48;;;6.75;;
71821;SDS011;64096;52.548;13.406;2024-02-21T10:36:28;9.32;;;6.28;;
71821;SDS011;64096;52.548;13.406;2024-02-21T10:38:54;12.70;;;7.40;;
71821;SDS011;64096;52.548;13.406;2024-02-21T10:41:21;11.45;;;7.00;;
71821;SDS011;64096;52.548;13.406;2024-02-21T10:43:52;13.95;;;9.63;;
71821;SDS011;64096;52.548;13.406;2024-02-21T10:46:22;14.38;;;9.07;;
71821;SDS011;64096;52.548;13.406;2024-02-21T10:48:51;16.60;;;9.40;;
71821;SDS011;64096;52.548;13.406;2024-02-21T10:51:18;10.70;;;6.63;;
71821;SDS011;64096;52.548;13.406;2024-02-21T10:56:30;10.05;;;6.28;;
71821;SDS011;64096;52.548;13.406;2024-02-21T10:59:00;9.65;;;6.28;;
71821;SDS011;64096;52.548;13.406;2024-02-21T11:01:30;10.73;;;6.30;;
71821;SDS011;64096;52.548;13.406;2024-02-21T11:04:01;9.85;;;5.90;;
71821;SDS011;64096;52.548;13.406;2024-02-21T11:06:27;8.73;;;5.70;;
71821;SDS011;64096;52.548;13.406;2024-02-21T11:09:03;8.45;;;6.18;;
71821;SDS011;64096;52.548;13.406;2024-02-21T11:11:32;8.88;;;5.57;;
71821;SDS011;64096;52.548;13.406;2024-02-21T11:16:38;7.43;;;4.72;;
71821;SDS011;64096;52.548;13.406;2024-02-21T11:19:08;7.97;;;5.47;;
71821;SDS011;64096;52.548;13.406;2024-02-21T11:21:37;8.70;;;5.53;;
71821;SDS011;64096;52.548;13.406;2024-02-21T11:24:04;10.70;;;6.15;;
71821;SDS011;64096;52.548;13.406;2024-02-21T11:26:30;9.90;;;5.40;;
71821;SDS011;64096;52.548;13.406;2024-02-21T11:29:00;7.40;;;5.00;;
71821;SDS011;64096;52.548;13.406;2024-02-21T11:31:37;7.13;;;4.40;;
71821;SDS011;64096;52.548;13.406;2024-02-21T11:34:04;7.20;;;5.35;;
71821;SDS011;64096;52.548;13.406;2024-02-21T11:36:30;8.75;;;5.00;;
71821;SDS011;64096;52.548;13.406;2024-02-21T11:39:02;8.50;;;4.47;;
71821;SDS011;64096;52.548;13.406;2024-02-21T11:41:29;8.00;;;4.50;;
71821;SDS011;64096;52.548;13.406;2024-02-21T11:43:55;6.13;;;4.18;;
71821;SDS011;64096;52.548;13.406;2024-02-21T11:46:21;7.05;;;4.75;;
71821;SDS011;64096;52.548;13.406;2024-02-21T11:48:49;7.10;;;4.38;;
71821;SDS011;64096;52.548;13.406;2024-02-21T11:54:05;7.35;;;4.07;;
71821;SDS011;64096;52.548;13.406;2024-02-21T11:56:31;5.65;;;3.75;;
71821;SDS011;64096;52.548;13.406;2024-02-21T11:58:59;6.65;;;4.47;;
71821;SDS011;64096;52.548;13.406;2024-02-21T12:01:25;5.93;;;3.92;;
71821;SDS011;64096;52.548;13.406;2024-02-21T12:03:51;7.15;;;5.10;;
71821;SDS011;64096;52.548;13.406;2024-02-21T12:06:17;8.85;;;4.72;;
71821;SDS011;64096;52.548;13.406;2024-02-21T12:08:47;6.35;;;4.30;;
71821;SDS011;64096;52.548;13.406;2024-02-21T12:11:31;7.03;;;4.10;;
71821;SDS011;64096;52.548;13.406;2024-02-21T12:14:01;5.80;;;3.72;;
71821;SDS011;64096;52.548;13.406;2024-02-21T12:16:28;6.82;;;3.72;;
71821;SDS011;64096;52.548;13.406;2024-02-21T12:18:55;5.78;;;3.28;;
71821;SDS011;64096;52.548;13.406;2024-02-21T12:21:25;6.28;;;3.78;;
71821;SDS011;64096;52.548;13.406;2024-02-21T12:23:53;6.78;;;3.22;;
71821;SDS011;64096;52.548;13.406;2024-02-21T12:26:22;6.78;;;4.13;;
71821;SDS011;64096;52.548;13.406;2024-02-21T12:28:48;8.52;;;4.30;;
71821;SDS011;64096;52.548;13.406;2024-02-21T12:31:14;6.68;;;3.67;;
71821;SDS011;64096;52.548;13.406;2024-02-21T12:33:41;5.75;;;3.55;;
71821;SDS011;64096;52.548;13.406;2024-02-21T12:36:07;6.13;;;3.78;;
71821;SDS011;64096;52.548;13.406;2024-02-21T12:38:34;7.18;;;3.92;;
71821;SDS011;64096;52.548;13.406;2024-02-21T12:41:00;8.02;;;4.13;;
71821;SDS011;64096;52.548;13.406;2024-02-21T12:43:26;5.93;;;3.75;;
71821;SDS011;64096;52.548;13.406;2024-02-21T12:45:52;5.68;;;3.67;;
71821;SDS011;64096;52.548;13.406;2024-02-21T12:48:18;4.50;;;3.17;;
71821;SDS011;64096;52.548;13.406;2024-02-21T12:50:49;5.50;;;3.20;;
71821;SDS011;64096;52.548;13.406;2024-02-21T12:53:16;6.88;;;3.55;;
71821;SDS011;64096;52.548;13.406;2024-02-21T12:55:44;4.57;;;2.83;;
71821;SDS011;64096;52.548;13.406;2024-02-21T12:58:10;4.82;;;2.60;;
71821;SDS011;64096;52.548;13.406;2024-02-21T13:00:36;6.07;;;2.92;;
71821;SDS011;64096;52.548;13.406;2024-02-21T13:03:03;4.38;;;2.40;;
71821;SDS011;64096;52.548;13.406;2024-02-21T13:05:29;7.05;;;2.80;;
71821;SDS011;64096;52.548;13.406;2024-02-21T13:07:57;4.60;;;2.70;;
71821;SDS011;64096;52.548;13.406;2024-02-21T13:10:23;4.18;;;2.28;;
71821;SDS011;64096;52.548;13.406;2024-02-21T13:12:50;4.45;;;2.63;;
71821;SDS011;64096;52.548;13.406;2024-02-21T13:15:17;6.38;;;3.30;;
71821;SDS011;64096;52.548;13.406;2024-02-21T13:17:46;5.45;;;3.10;;
71821;SDS011;64096;52.548;13.406;2024-02-21T13:20:12;5.40;;;2.90;;
71821;SDS011;64096;52.548;13.406;2024-02-21T13:22:38;5.40;;;2.60;;
71821;SDS011;64096;52.548;13.406;2024-02-21T13:25:05;4.75;;;2.63;;
71821;SDS011;64096;52.548;13.406;2024-02-21T13:27:32;4.68;;;2.50;;
71821;SDS011;64096;52.548;13.406;2024-02-21T13:29:58;4.32;;;2.75;;
71821;SDS011;64096;52.548;13.406;2024-02-21T13:32:28;5.47;;;3.00;;
71821;SDS011;64096;52.548;13.406;2024-02-21T13:34:54;4.60;;;2.65;;
71821;SDS011;64096;52.548;13.406;2024-02-21T13:37:20;5.80;;;3.00;;
71821;SDS011;64096;52.548;13.406;2024-02-21T13:39:46;4.78;;;3.17;;
71821;SDS011;64096;52.548;13.406;2024-02-21T13:42:12;5.93;;;2.78;;
71821;SDS011;64096;52.548;13.406;2024-02-21T13:44:38;7.60;;;2.95;;
71821;SDS011;64096;52.548;13.406;2024-02-21T13:47:05;5.35;;;2.75;;
71821;SDS011;64096;52.548;13.406;2024-02-21T13:49:33;4.57;;;2.70;;
71821;SDS011;64096;52.548;13.406;2024-02-21T13:52:00;5.68;;;2.80;;
71821;SDS011;64096;52.548;13.406;2024-02-21T13:54:26;4.85;;;2.70;;
71821;SDS011;64096;52.548;13.406;2024-02-21T13:56:52;5.50;;;2.47;;
71821;SDS011;64096;52.548;13.406;2024-02-21T13:59:18;4.80;;;2.20;;
